Terminal Aerodrome Forecast
Issued by NWS Midland/Odessa, TX

Home | Current Version | Previous Version | Text Only | Print | Product List | Glossary On
Versions: 1 2 3 4 5 6 7 8 9 10 11 12 13 14 15 16
000
FTUS44 KMAF 281725
TAFMAF
TAF
KMAF 281725Z 2818/2918 19019G26KT P6SM SCT250
     FM290000 16015KT P6SM FEW250
     FM291500 25020G28KT P6SM FEW250=

USA.gov is the U.S. government's official web portal to all federal, state and local government web resources and services.